»·PEaware :: DCM424 KUAO-KNRA

DCM424 :: KUAO-KNRA

FLIGHT INFORMATION

Flight Status: Arrived
Operator: DotCom
More flights by this operator :: More flights under this callsign
Pilot: Ben H. (9170)
Aircraft: DORNIER 228
(D228)
More flights by this aircraft type
Origin: KUAO Aurora State
United States
Destination: KNRA Coupeville NOLF
United States
More flights between these airports :: More routes between these airports
Route: +BTG V287 OLM V165 DIGGN
File this flight plan on PilotEdge
Remarks:
Altitude:
(Current/Filed)
11,000ft
Speed:
(Current/Filed)
210kts
Departed: 22-Sep-18 09:13 AM
Arrived: 22-Sep-18 10:38 AM
Distance/Time
Traveled:
177nm/1:24
Distance/Time
To Go:
Arrived

Flight Plot

Page will automatically refresh every two minutes.

Flight plan parsing failed; only flown route is shown


Map Options




Map Legend


Flown Route
Filed Route
Departure Airport
Arrival Airport
Navaid (VOR, NDB)
Fix

Horizontal Profiles

Position Reports

Time Latitude Longitude Heading Altitude Ground
Speed
22-Sep-18 09:05 45.250609 -122.767809 93 205ft 0kts
22-Sep-18 09:06 45.250609 -122.767809 93 205ft 0kts
22-Sep-18 09:07 45.250609 -122.767809 93 205ft 0kts
22-Sep-18 09:08 45.250673 -122.767587 39 205ft 0kts
22-Sep-18 09:09 45.251104 -122.767637 304 205ft 0kts
22-Sep-18 09:10 45.253500 -122.767721 8 205ft 10kts
22-Sep-18 09:11 45.253778 -122.767751 318 205ft 0kts
22-Sep-18 09:12 45.253778 -122.767751 318 205ft 0kts
22-Sep-18 09:13 45.253778 -122.767751 318 205ft 0kts
22-Sep-18 09:14 45.253421 -122.768914 186 205ft 31kts
22-Sep-18 09:15 45.235786 -122.752157 36 1821ft 148kts
22-Sep-18 09:16 45.269673 -122.760785 342 4575ft 124kts
22-Sep-18 09:17 45.302566 -122.767009 28 6941ft 128kts
22-Sep-18 09:18 45.334059 -122.739954 13 8834ft 148kts
22-Sep-18 09:19 45.375197 -122.724411 5 10676ft 155kts
22-Sep-18 09:20 45.420745 -122.708798 7 11000ft 217kts
22-Sep-18 09:21 45.477914 -122.688264 8 10980ft 234kts
22-Sep-18 09:22 45.539782 -122.666137 9 10979ft 238kts
22-Sep-18 09:36 45.251419 -122.767182 278 205ft 0kts
22-Sep-18 09:37 45.251419 -122.767182 278 205ft 0kts
22-Sep-18 09:38 45.251419 -122.767182 278 205ft 0kts
22-Sep-18 09:39 45.252018 -122.768004 7 205ft 21kts
22-Sep-18 09:40 45.253748 -122.767738 328 205ft 0kts
22-Sep-18 09:41 45.253751 -122.767742 327 205ft 0kts
22-Sep-18 09:42 45.242353 -122.770738 189 483ft 109kts
22-Sep-18 09:43 45.242462 -122.741634 357 2583ft 131kts
22-Sep-18 09:44 45.276859 -122.755946 355 4513ft 139kts
22-Sep-18 09:45 45.313258 -122.746806 10 6184ft 149kts
22-Sep-18 09:46 45.355106 -122.731750 8 7836ft 159kts
22-Sep-18 09:47 45.394478 -122.717730 7 9364ft 160kts
22-Sep-18 09:48 45.437248 -122.702490 3 10931ft 161kts
22-Sep-18 09:49 45.489921 -122.684140 7 11000ft 222kts
22-Sep-18 09:50 45.549861 -122.662572 7 10992ft 235kts
22-Sep-18 09:51 45.613703 -122.639654 7 10989ft 242kts
22-Sep-18 09:52 45.678933 -122.616248 7 10989ft 243kts
22-Sep-18 09:53 45.744523 -122.593562 358 10985ft 239kts
22-Sep-18 09:54 45.804833 -122.605554 342 10988ft 230kts
22-Sep-18 09:55 45.867552 -122.621255 342 10980ft 228kts
22-Sep-18 09:56 45.929037 -122.636610 341 10971ft 222kts
22-Sep-18 09:57 45.989692 -122.651817 341 10967ft 220kts
22-Sep-18 09:58 46.049374 -122.666768 341 10972ft 219kts
22-Sep-18 09:59 46.109315 -122.681847 341 10966ft 219kts
22-Sep-18 10:00 46.159460 -122.694433 342 10964ft 220kts
22-Sep-18 10:01 46.219498 -122.709546 341 10958ft 221kts
22-Sep-18 10:02 46.279995 -122.724846 341 10944ft 223kts
22-Sep-18 10:03 46.341225 -122.740332 341 10937ft 226kts
22-Sep-18 10:04 46.403718 -122.756181 342 10924ft 228kts
22-Sep-18 10:05 46.465971 -122.771988 341 10924ft 229kts
22-Sep-18 10:06 46.528717 -122.787970 342 10921ft 229kts
22-Sep-18 10:07 46.591342 -122.803976 342 10924ft 229kts
22-Sep-18 10:08 46.654339 -122.820119 342 10922ft 230kts
22-Sep-18 10:09 46.716926 -122.836139 341 11007ft 229kts
22-Sep-18 10:10 46.779804 -122.852325 342 11000ft 230kts
22-Sep-18 10:11 46.843084 -122.868665 342 10995ft 231kts
22-Sep-18 10:12 46.903042 -122.884182 342 10989ft 231kts
22-Sep-18 10:13 46.964165 -122.900003 344 10986ft 232kts
22-Sep-18 10:14 47.021032 -122.895311 1 10986ft 238kts
22-Sep-18 10:15 47.063381 -122.889466 1 10986ft 238kts
22-Sep-18 10:16 47.100811 -122.884302 1 10987ft 238kts
22-Sep-18 10:17 47.104325 -122.883819 1 10986ft 238kts
22-Sep-18 10:18 47.110357 -122.882990 1 10984ft 238kts
22-Sep-18 10:19 47.144299 -122.878333 1 10984ft 238kts
22-Sep-18 10:20 47.200557 -122.870620 1 10984ft 238kts
22-Sep-18 10:21 47.266181 -122.861608 1 10985ft 238kts
22-Sep-18 10:22 47.331929 -122.852551 1 10985ft 238kts
22-Sep-18 10:23 47.397389 -122.843507 1 10985ft 238kts
22-Sep-18 10:24 47.463429 -122.834365 1 10985ft 238kts
22-Sep-18 10:25 47.528985 -122.825276 1 10986ft 238kts
22-Sep-18 10:26 47.594453 -122.816171 1 10986ft 238kts
22-Sep-18 10:27 47.660090 -122.807022 1 10986ft 238kts
22-Sep-18 10:28 47.725700 -122.797832 1 10985ft 238kts
22-Sep-18 10:29 47.790441 -122.788784 1 10397ft 236kts
22-Sep-18 10:30 47.855969 -122.779558 2 9262ft 237kts
22-Sep-18 10:31 47.920264 -122.770528 3 8154ft 232kts
22-Sep-18 10:32 47.981385 -122.747547 21 7044ft 223kts
22-Sep-18 10:33 48.037682 -122.715797 21 5946ft 210kts
22-Sep-18 10:34 48.090062 -122.686110 21 4829ft 196kts
22-Sep-18 10:35 48.125166 -122.638631 49 3769ft 190kts
22-Sep-18 10:36 48.159012 -122.603188 324 2154ft 167kts
22-Sep-18 10:37 48.191553 -122.644968 331 713ft 145kts
22-Sep-18 10:38 48.203777 -122.625642 153 688ft 136kts
22-Sep-18 10:39 48.174896 -122.612928 260 904ft 118kts
22-Sep-18 10:40 48.192301 -122.634858 210 199ft 32kts

Navigation Log

Ident Type
Flight plan parsing failed, navigation log unavailable